< < Back
Terminal Aerodrome Forecast


Current Version              Previous Versions:   1  2  3  4  5  6  7  8  9  

Terminal Aerodrome Forecast

275
FTUS44 KMRX 312320
TAFTYS
TAF
KTYS 312320Z 0100/0124 26007KT P6SM FEW070 BKN250
     FM010400 02004KT P6SM FEW050
     FM011200 03005KT P6SM SKC=



Latest METAR

859
SAUS80 KWBC 020000 RRA
MTRTYS
METAR KTYS 012353Z 03005KT 10SM BKN250 19/M04 A3006 RMK AO2 SLP174
T01891039 10222 20189 55001


USA.gov is the U.S. government's official web portal to all federal, state and local government web resources and services.